sensor_id;sensor_type;location;lat;lon;timestamp;P1;durP1;ratioP1;P2;durP2;ratioP2
76073;SDS011;64776;42.636;24.358;2023-04-01T00:00:44;12.35;;;5.15;;
76073;SDS011;64776;42.636;24.358;2023-04-01T00:03:47;19.35;;;8.48;;
76073;SDS011;64776;42.636;24.358;2023-04-01T00:06:48;25.33;;;11.50;;
76073;SDS011;64776;42.636;24.358;2023-04-01T00:09:49;24.45;;;12.02;;
76073;SDS011;64776;42.636;24.358;2023-04-01T00:13:15;24.27;;;9.50;;
76073;SDS011;64776;42.636;24.358;2023-04-01T00:16:16;19.48;;;6.65;;
76073;SDS011;64776;42.636;24.358;2023-04-01T00:19:18;19.42;;;9.23;;
76073;SDS011;64776;42.636;24.358;2023-04-01T00:22:19;19.63;;;8.50;;
76073;SDS011;64776;42.636;24.358;2023-04-01T00:25:20;24.35;;;11.07;;
76073;SDS011;64776;42.636;24.358;2023-04-01T00:28:21;26.17;;;12.43;;
76073;SDS011;64776;42.636;24.358;2023-04-01T00:31:22;26.92;;;10.90;;
76073;SDS011;64776;42.636;24.358;2023-04-01T00:34:24;60.05;;;24.20;;
76073;SDS011;64776;42.636;24.358;2023-04-01T00:37:25;34.33;;;16.48;;
76073;SDS011;64776;42.636;24.358;2023-04-01T00:40:28;20.80;;;9.00;;
76073;SDS011;64776;42.636;24.358;2023-04-01T00:43:30;20.27;;;6.70;;
76073;SDS011;64776;42.636;24.358;2023-04-01T00:46:31;14.75;;;6.10;;
76073;SDS011;64776;42.636;24.358;2023-04-01T00:49:34;15.75;;;5.93;;
76073;SDS011;64776;42.636;24.358;2023-04-01T00:52:38;23.85;;;7.80;;
76073;SDS011;64776;42.636;24.358;2023-04-01T00:55:41;22.77;;;8.50;;
76073;SDS011;64776;42.636;24.358;2023-04-01T00:58:46;18.25;;;6.78;;
76073;SDS011;64776;42.636;24.358;2023-04-01T01:01:51;20.30;;;6.38;;
76073;SDS011;64776;42.636;24.358;2023-04-01T01:04:53;17.33;;;6.13;;
76073;SDS011;64776;42.636;24.358;2023-04-01T01:07:56;17.90;;;7.25;;
76073;SDS011;64776;42.636;24.358;2023-04-01T01:11:06;19.00;;;6.78;;
76073;SDS011;64776;42.636;24.358;2023-04-01T01:14:13;23.48;;;7.28;;
76073;SDS011;64776;42.636;24.358;2023-04-01T01:17:30;17.33;;;6.82;;
76073;SDS011;64776;42.636;24.358;2023-04-01T01:20:47;11.85;;;5.18;;
76073;SDS011;64776;42.636;24.358;2023-04-01T01:24:36;19.60;;;5.35;;
76073;SDS011;64776;42.636;24.358;2023-04-01T01:27:54;18.38;;;7.50;;
76073;SDS011;64776;42.636;24.358;2023-04-01T01:31:03;17.35;;;6.45;;
76073;SDS011;64776;42.636;24.358;2023-04-01T01:34:15;22.98;;;10.30;;
76073;SDS011;64776;42.636;24.358;2023-04-01T01:37:24;21.42;;;8.55;;
76073;SDS011;64776;42.636;24.358;2023-04-01T01:40:27;16.30;;;6.28;;
76073;SDS011;64776;42.636;24.358;2023-04-01T01:43:33;21.65;;;5.53;;
76073;SDS011;64776;42.636;24.358;2023-04-01T01:46:36;14.73;;;5.60;;
76073;SDS011;64776;42.636;24.358;2023-04-01T01:49:39;12.52;;;5.00;;
76073;SDS011;64776;42.636;24.358;2023-04-01T01:52:43;9.80;;;4.43;;
76073;SDS011;64776;42.636;24.358;2023-04-01T01:55:45;15.00;;;5.38;;
76073;SDS011;64776;42.636;24.358;2023-04-01T01:58:47;9.50;;;4.22;;
76073;SDS011;64776;42.636;24.358;2023-04-01T02:01:51;14.73;;;5.97;;
76073;SDS011;64776;42.636;24.358;2023-04-01T02:04:56;24.98;;;9.63;;
76073;SDS011;64776;42.636;24.358;2023-04-01T02:08:00;19.92;;;9.48;;
76073;SDS011;64776;42.636;24.358;2023-04-01T02:11:06;18.80;;;7.35;;
76073;SDS011;64776;42.636;24.358;2023-04-01T02:14:10;12.05;;;5.22;;
76073;SDS011;64776;42.636;24.358;2023-04-01T02:17:14;14.73;;;7.13;;
76073;SDS011;64776;42.636;24.358;2023-04-01T02:20:18;13.43;;;5.85;;
76073;SDS011;64776;42.636;24.358;2023-04-01T02:23:23;18.25;;;9.30;;
76073;SDS011;64776;42.636;24.358;2023-04-01T02:26:24;30.08;;;14.23;;
76073;SDS011;64776;42.636;24.358;2023-04-01T02:29:26;52.28;;;25.20;;
76073;SDS011;64776;42.636;24.358;2023-04-01T02:32:27;40.50;;;17.67;;
76073;SDS011;64776;42.636;24.358;2023-04-01T02:35:29;27.33;;;12.43;;
76073;SDS011;64776;42.636;24.358;2023-04-01T02:38:31;27.77;;;13.15;;
76073;SDS011;64776;42.636;24.358;2023-04-01T02:41:38;23.25;;;9.93;;
76073;SDS011;64776;42.636;24.358;2023-04-01T02:44:40;25.02;;;10.00;;
76073;SDS011;64776;42.636;24.358;2023-04-01T02:47:40;20.25;;;10.38;;
76073;SDS011;64776;42.636;24.358;2023-04-01T02:50:41;29.70;;;13.90;;
76073;SDS011;64776;42.636;24.358;2023-04-01T02:53:43;31.85;;;14.05;;
76073;SDS011;64776;42.636;24.358;2023-04-01T02:56:45;27.58;;;11.20;;
76073;SDS011;64776;42.636;24.358;2023-04-01T02:59:46;28.58;;;12.35;;
76073;SDS011;64776;42.636;24.358;2023-04-01T03:02:47;25.30;;;11.38;;
76073;SDS011;64776;42.636;24.358;2023-04-01T03:05:48;28.33;;;12.82;;
76073;SDS011;64776;42.636;24.358;2023-04-01T03:08:50;27.77;;;12.90;;
76073;SDS011;64776;42.636;24.358;2023-04-01T03:11:51;20.30;;;9.23;;
76073;SDS011;64776;42.636;24.358;2023-04-01T03:14:53;26.42;;;10.75;;
76073;SDS011;64776;42.636;24.358;2023-04-01T03:17:54;20.75;;;9.00;;
76073;SDS011;64776;42.636;24.358;2023-04-01T03:20:55;49.95;;;20.35;;
76073;SDS011;64776;42.636;24.358;2023-04-01T03:23:57;38.08;;;15.30;;
76073;SDS011;64776;42.636;24.358;2023-04-01T03:26:58;31.85;;;14.82;;
76073;SDS011;64776;42.636;24.358;2023-04-01T03:29:59;36.30;;;15.52;;
76073;SDS011;64776;42.636;24.358;2023-04-01T03:33:00;42.33;;;19.95;;
76073;SDS011;64776;42.636;24.358;2023-04-01T03:36:00;37.17;;;18.25;;
76073;SDS011;64776;42.636;24.358;2023-04-01T03:39:03;34.90;;;15.55;;
76073;SDS011;64776;42.636;24.358;2023-04-01T03:42:04;30.25;;;11.98;;
76073;SDS011;64776;42.636;24.358;2023-04-01T03:45:05;28.67;;;11.20;;
76073;SDS011;64776;42.636;24.358;2023-04-01T03:48:06;30.67;;;13.43;;
76073;SDS011;64776;42.636;24.358;2023-04-01T03:51:07;33.53;;;14.90;;
76073;SDS011;64776;42.636;24.358;2023-04-01T03:54:10;35.63;;;15.68;;
76073;SDS011;64776;42.636;24.358;2023-04-01T03:57:11;40.63;;;17.77;;
76073;SDS011;64776;42.636;24.358;2023-04-01T04:00:12;38.90;;;16.45;;
76073;SDS011;64776;42.636;24.358;2023-04-01T04:03:13;34.40;;;16.13;;
76073;SDS011;64776;42.636;24.358;2023-04-01T04:06:14;34.65;;;16.45;;
76073;SDS011;64776;42.636;24.358;2023-04-01T04:09:17;40.65;;;18.50;;
76073;SDS011;64776;42.636;24.358;2023-04-01T04:12:18;41.42;;;18.85;;
76073;SDS011;64776;42.636;24.358;2023-04-01T04:15:19;46.75;;;21.13;;
76073;SDS011;64776;42.636;24.358;2023-04-01T04:18:20;62.13;;;28.80;;
76073;SDS011;64776;42.636;24.358;2023-04-01T04:21:21;80.38;;;30.63;;
76073;SDS011;64776;42.636;24.358;2023-04-01T04:24:23;103.95;;;40.35;;
76073;SDS011;64776;42.636;24.358;2023-04-01T04:27:24;112.75;;;44.97;;
76073;SDS011;64776;42.636;24.358;2023-04-01T04:30:24;115.97;;;42.90;;
76073;SDS011;64776;42.636;24.358;2023-04-01T04:33:25;161.43;;;62.33;;
76073;SDS011;64776;42.636;24.358;2023-04-01T04:36:26;118.07;;;49.53;;
76073;SDS011;64776;42.636;24.358;2023-04-01T04:39:28;150.70;;;60.08;;
76073;SDS011;64776;42.636;24.358;2023-04-01T04:42:29;198.18;;;75.40;;
76073;SDS011;64776;42.636;24.358;2023-04-01T04:45:30;148.27;;;56.60;;
76073;SDS011;64776;42.636;24.358;2023-04-01T04:48:31;120.60;;;51.78;;
76073;SDS011;64776;42.636;24.358;2023-04-01T04:51:32;108.32;;;43.50;;
76073;SDS011;64776;42.636;24.358;2023-04-01T04:54:35;82.50;;;33.45;;
76073;SDS011;64776;42.636;24.358;2023-04-01T04:57:35;67.68;;;27.00;;
76073;SDS011;64776;42.636;24.358;2023-04-01T05:00:36;106.30;;;37.08;;
76073;SDS011;64776;42.636;24.358;2023-04-01T05:03:37;182.93;;;65.50;;
76073;SDS011;64776;42.636;24.358;2023-04-01T05:06:38;215.95;;;77.15;;
76073;SDS011;64776;42.636;24.358;2023-04-01T05:09:40;92.20;;;40.22;;
76073;SDS011;64776;42.636;24.358;2023-04-01T05:12:41;121.78;;;53.20;;
76073;SDS011;64776;42.636;24.358;2023-04-01T05:15:42;97.82;;;43.05;;
76073;SDS011;64776;42.636;24.358;2023-04-01T05:18:43;78.60;;;35.15;;
76073;SDS011;64776;42.636;24.358;2023-04-01T05:21:44;87.22;;;38.53;;
76073;SDS011;64776;42.636;24.358;2023-04-01T05:24:46;83.95;;;39.53;;
76073;SDS011;64776;42.636;24.358;2023-04-01T05:27:47;76.43;;;34.25;;
76073;SDS011;64776;42.636;24.358;2023-04-01T05:30:48;69.28;;;30.60;;
76073;SDS011;64776;42.636;24.358;2023-04-01T05:33:52;76.07;;;31.42;;
76073;SDS011;64776;42.636;24.358;2023-04-01T05:36:53;150.88;;;50.85;;
76073;SDS011;64776;42.636;24.358;2023-04-01T05:39:55;87.65;;;35.42;;
76073;SDS011;64776;42.636;24.358;2023-04-01T05:42:56;62.50;;;31.83;;
76073;SDS011;64776;42.636;24.358;2023-04-01T05:45:57;121.80;;;46.03;;
76073;SDS011;64776;42.636;24.358;2023-04-01T05:48:57;295.45;;;108.20;;
76073;SDS011;64776;42.636;24.358;2023-04-01T05:51:58;99.35;;;42.17;;
76073;SDS011;64776;42.636;24.358;2023-04-01T05:55:01;94.75;;;36.30;;
76073;SDS011;64776;42.636;24.358;2023-04-01T05:58:02;67.57;;;30.95;;
76073;SDS011;64776;42.636;24.358;2023-04-01T06:01:03;55.90;;;27.48;;
76073;SDS011;64776;42.636;24.358;2023-04-01T06:04:06;38.40;;;20.08;;
76073;SDS011;64776;42.636;24.358;2023-04-01T06:07:16;39.83;;;20.20;;
76073;SDS011;64776;42.636;24.358;2023-04-01T06:10:20;37.72;;;16.75;;
76073;SDS011;64776;42.636;24.358;2023-04-01T06:13:28;30.05;;;11.80;;
76073;SDS011;64776;42.636;24.358;2023-04-01T06:16:44;139.18;;;46.97;;
76073;SDS011;64776;42.636;24.358;2023-04-01T06:19:59;100.38;;;43.67;;
76073;SDS011;64776;42.636;24.358;2023-04-01T06:23:27;65.55;;;30.63;;
76073;SDS011;64776;42.636;24.358;2023-04-01T06:26:41;60.22;;;28.38;;
76073;SDS011;64776;42.636;24.358;2023-04-01T06:30:03;54.25;;;28.30;;
76073;SDS011;64776;42.636;24.358;2023-04-01T06:33:25;58.45;;;29.52;;
76073;SDS011;64776;42.636;24.358;2023-04-01T06:36:42;67.47;;;32.65;;
76073;SDS011;64776;42.636;24.358;2023-04-01T06:39:57;53.83;;;28.58;;
76073;SDS011;64776;42.636;24.358;2023-04-01T06:43:09;48.20;;;22.55;;
76073;SDS011;64776;42.636;24.358;2023-04-01T06:46:16;73.82;;;36.50;;
76073;SDS011;64776;42.636;24.358;2023-04-01T06:52:50;59.75;;;30.95;;
76073;SDS011;64776;42.636;24.358;2023-04-01T06:56:00;61.55;;;28.48;;
76073;SDS011;64776;42.636;24.358;2023-04-01T06:59:08;61.45;;;29.77;;
76073;SDS011;64776;42.636;24.358;2023-04-01T07:02:16;54.78;;;26.95;;
76073;SDS011;64776;42.636;24.358;2023-04-01T07:05:24;63.03;;;31.30;;
76073;SDS011;64776;42.636;24.358;2023-04-01T07:08:31;22.95;;;10.90;;
76073;SDS011;64776;42.636;24.358;2023-04-01T07:11:37;18.15;;;7.38;;
76073;SDS011;64776;42.636;24.358;2023-04-01T07:14:40;16.73;;;6.05;;
76073;SDS011;64776;42.636;24.358;2023-04-01T07:17:43;9.52;;;3.17;;
76073;SDS011;64776;42.636;24.358;2023-04-01T07:20:47;7.57;;;2.92;;
76073;SDS011;64776;42.636;24.358;2023-04-01T07:23:49;8.50;;;2.63;;
76073;SDS011;64776;42.636;24.358;2023-04-01T07:26:55;12.85;;;4.20;;
76073;SDS011;64776;42.636;24.358;2023-04-01T07:29:58;9.20;;;3.15;;
76073;SDS011;64776;42.636;24.358;2023-04-01T07:33:01;10.43;;;3.97;;
76073;SDS011;64776;42.636;24.358;2023-04-01T07:36:07;10.90;;;3.53;;
76073;SDS011;64776;42.636;24.358;2023-04-01T07:39:17;12.60;;;4.32;;
76073;SDS011;64776;42.636;24.358;2023-04-01T07:42:30;18.83;;;9.38;;
76073;SDS011;64776;42.636;24.358;2023-04-01T07:45:46;10.23;;;2.97;;
76073;SDS011;64776;42.636;24.358;2023-04-01T07:48:55;6.30;;;2.55;;
76073;SDS011;64776;42.636;24.358;2023-04-01T07:52:04;8.05;;;2.58;;
76073;SDS011;64776;42.636;24.358;2023-04-01T07:55:13;18.38;;;5.65;;
76073;SDS011;64776;42.636;24.358;2023-04-01T07:58:22;10.77;;;2.88;;
76073;SDS011;64776;42.636;24.358;2023-04-01T08:01:34;14.32;;;4.63;;
76073;SDS011;64776;42.636;24.358;2023-04-01T08:04:46;17.67;;;5.75;;
76073;SDS011;64776;42.636;24.358;2023-04-01T08:07:58;21.02;;;8.38;;
76073;SDS011;64776;42.636;24.358;2023-04-01T08:11:08;19.40;;;8.70;;
76073;SDS011;64776;42.636;24.358;2023-04-01T08:14:21;9.23;;;3.88;;
76073;SDS011;64776;42.636;24.358;2023-04-01T08:17:32;19.15;;;7.45;;
76073;SDS011;64776;42.636;24.358;2023-04-01T08:20:41;16.67;;;5.30;;
76073;SDS011;64776;42.636;24.358;2023-04-01T08:23:48;22.85;;;8.23;;
76073;SDS011;64776;42.636;24.358;2023-04-01T08:26:53;13.57;;;5.07;;
76073;SDS011;64776;42.636;24.358;2023-04-01T08:29:58;17.98;;;8.55;;
76073;SDS011;64776;42.636;24.358;2023-04-01T08:33:05;13.65;;;4.55;;
76073;SDS011;64776;42.636;24.358;2023-04-01T08:36:11;22.58;;;8.50;;
76073;SDS011;64776;42.636;24.358;2023-04-01T08:39:16;11.07;;;4.30;;
76073;SDS011;64776;42.636;24.358;2023-04-01T08:45:44;57.85;;;18.10;;
76073;SDS011;64776;42.636;24.358;2023-04-01T08:55:37;22.67;;;10.02;;
76073;SDS011;64776;42.636;24.358;2023-04-01T08:58:54;14.45;;;6.55;;
76073;SDS011;64776;42.636;24.358;2023-04-01T09:09:25;31.35;;;12.13;;
76073;SDS011;64776;42.636;24.358;2023-04-01T09:12:51;21.48;;;8.55;;
76073;SDS011;64776;42.636;24.358;2023-04-01T09:16:13;14.32;;;5.82;;
76073;SDS011;64776;42.636;24.358;2023-04-01T09:19:28;12.85;;;4.43;;
76073;SDS011;64776;42.636;24.358;2023-04-01T09:22:43;19.88;;;4.65;;
76073;SDS011;64776;42.636;24.358;2023-04-01T09:25:59;14.35;;;4.22;;
76073;SDS011;64776;42.636;24.358;2023-04-01T09:29:19;16.58;;;6.65;;
76073;SDS011;64776;42.636;24.358;2023-04-01T09:32:48;11.43;;;4.72;;
76073;SDS011;64776;42.636;24.358;2023-04-01T09:36:18;22.52;;;9.18;;
76073;SDS011;64776;42.636;24.358;2023-04-01T09:39:34;24.42;;;10.20;;
76073;SDS011;64776;42.636;24.358;2023-04-01T09:42:44;14.15;;;4.30;;
76073;SDS011;64776;42.636;24.358;2023-04-01T09:46:06;13.38;;;7.03;;
76073;SDS011;64776;42.636;24.358;2023-04-01T09:49:26;18.33;;;9.82;;
76073;SDS011;64776;42.636;24.358;2023-04-01T09:52:44;11.02;;;4.22;;
76073;SDS011;64776;42.636;24.358;2023-04-01T10:17:41;13.98;;;6.68;;
76073;SDS011;64776;42.636;24.358;2023-04-01T10:21:05;13.07;;;5.82;;
76073;SDS011;64776;42.636;24.358;2023-04-01T10:24:26;13.13;;;3.50;;
76073;SDS011;64776;42.636;24.358;2023-04-01T10:28:04;10.43;;;2.97;;
76073;SDS011;64776;42.636;24.358;2023-04-01T10:35:07;24.20;;;9.27;;
76073;SDS011;64776;42.636;24.358;2023-04-01T10:45:45;23.08;;;6.72;;
76073;SDS011;64776;42.636;24.358;2023-04-01T10:49:21;48.00;;;17.73;;
76073;SDS011;64776;42.636;24.358;2023-04-01T10:52:51;30.33;;;9.95;;
76073;SDS011;64776;42.636;24.358;2023-04-01T10:56:32;39.00;;;13.90;;
76073;SDS011;64776;42.636;24.358;2023-04-01T10:59:58;24.98;;;9.43;;
76073;SDS011;64776;42.636;24.358;2023-04-01T11:14:13;11.15;;;5.00;;
76073;SDS011;64776;42.636;24.358;2023-04-01T11:21:44;16.40;;;7.70;;
76073;SDS011;64776;42.636;24.358;2023-04-01T11:25:08;13.93;;;5.47;;
76073;SDS011;64776;42.636;24.358;2023-04-01T11:28:24;10.70;;;3.92;;
76073;SDS011;64776;42.636;24.358;2023-04-01T11:31:47;15.40;;;6.28;;
76073;SDS011;64776;42.636;24.358;2023-04-01T11:34:57;9.98;;;3.00;;
76073;SDS011;64776;42.636;24.358;2023-04-01T11:38:23;11.38;;;4.20;;
76073;SDS011;64776;42.636;24.358;2023-04-01T11:41:37;8.63;;;3.30;;
76073;SDS011;64776;42.636;24.358;2023-04-01T11:44:47;5.95;;;2.10;;
76073;SDS011;64776;42.636;24.358;2023-04-01T11:51:24;16.90;;;6.57;;
76073;SDS011;64776;42.636;24.358;2023-04-01T12:01:36;17.80;;;7.07;;
76073;SDS011;64776;42.636;24.358;2023-04-01T12:04:53;16.00;;;6.13;;
76073;SDS011;64776;42.636;24.358;2023-04-01T12:08:09;16.10;;;7.40;;
76073;SDS011;64776;42.636;24.358;2023-04-01T12:11:22;15.75;;;6.03;;
76073;SDS011;64776;42.636;24.358;2023-04-01T12:14:36;14.45;;;4.57;;
76073;SDS011;64776;42.636;24.358;2023-04-01T12:17:43;9.27;;;4.68;;
76073;SDS011;64776;42.636;24.358;2023-04-01T12:20:54;11.90;;;5.83;;
76073;SDS011;64776;42.636;24.358;2023-04-01T12:24:25;16.25;;;6.15;;
76073;SDS011;64776;42.636;24.358;2023-04-01T12:27:59;19.65;;;10.27;;
76073;SDS011;64776;42.636;24.358;2023-04-01T12:38:03;14.40;;;6.10;;
76073;SDS011;64776;42.636;24.358;2023-04-01T12:41:14;21.50;;;10.30;;
76073;SDS011;64776;42.636;24.358;2023-04-01T12:50:59;22.20;;;8.82;;
76073;SDS011;64776;42.636;24.358;2023-04-01T12:54:48;60.50;;;29.48;;
76073;SDS011;64776;42.636;24.358;2023-04-01T13:01:39;25.15;;;10.68;;
76073;SDS011;64776;42.636;24.358;2023-04-01T13:04:58;23.33;;;9.63;;
76073;SDS011;64776;42.636;24.358;2023-04-01T13:08:22;15.65;;;5.53;;
76073;SDS011;64776;42.636;24.358;2023-04-01T13:11:40;13.35;;;6.72;;
76073;SDS011;64776;42.636;24.358;2023-04-01T13:15:05;11.90;;;5.20;;
76073;SDS011;64776;42.636;24.358;2023-04-01T13:18:20;14.63;;;4.47;;
76073;SDS011;64776;42.636;24.358;2023-04-01T13:21:33;10.65;;;5.03;;
76073;SDS011;64776;42.636;24.358;2023-04-01T13:24:45;6.63;;;2.47;;
76073;SDS011;64776;42.636;24.358;2023-04-01T13:27:55;24.40;;;11.27;;
76073;SDS011;64776;42.636;24.358;2023-04-01T13:31:03;4.75;;;1.95;;
76073;SDS011;64776;42.636;24.358;2023-04-01T13:34:15;10.23;;;4.35;;
76073;SDS011;64776;42.636;24.358;2023-04-01T13:37:30;8.68;;;3.83;;
76073;SDS011;64776;42.636;24.358;2023-04-01T13:40:48;7.97;;;3.75;;
76073;SDS011;64776;42.636;24.358;2023-04-01T13:43:58;19.65;;;11.02;;
76073;SDS011;64776;42.636;24.358;2023-04-01T13:47:09;13.75;;;6.30;;
76073;SDS011;64776;42.636;24.358;2023-04-01T13:50:26;15.98;;;6.82;;
76073;SDS011;64776;42.636;24.358;2023-04-01T13:53:44;137.05;;;57.25;;
76073;SDS011;64776;42.636;24.358;2023-04-01T13:56:57;14.07;;;7.43;;
76073;SDS011;64776;42.636;24.358;2023-04-01T14:12:09;17.35;;;7.75;;
76073;SDS011;64776;42.636;24.358;2023-04-01T14:15:23;19.05;;;8.82;;
76073;SDS011;64776;42.636;24.358;2023-04-01T14:18:37;17.90;;;6.85;;
76073;SDS011;64776;42.636;24.358;2023-04-01T14:22:20;34.97;;;16.40;;
76073;SDS011;64776;42.636;24.358;2023-04-01T14:28:58;6.80;;;1.90;;
76073;SDS011;64776;42.636;24.358;2023-04-01T14:32:11;11.40;;;4.65;;
76073;SDS011;64776;42.636;24.358;2023-04-01T14:35:22;9.57;;;3.20;;
76073;SDS011;64776;42.636;24.358;2023-04-01T14:38:35;12.20;;;4.50;;
76073;SDS011;64776;42.636;24.358;2023-04-01T14:41:48;22.27;;;9.27;;
76073;SDS011;64776;42.636;24.358;2023-04-01T14:45:12;13.02;;;6.70;;
76073;SDS011;64776;42.636;24.358;2023-04-01T14:48:34;19.88;;;9.13;;
76073;SDS011;64776;42.636;24.358;2023-04-01T14:51:38;20.52;;;8.63;;
76073;SDS011;64776;42.636;24.358;2023-04-01T14:54:40;13.13;;;5.90;;
76073;SDS011;64776;42.636;24.358;2023-04-01T14:57:44;12.60;;;5.25;;
76073;SDS011;64776;42.636;24.358;2023-04-01T15:01:06;12.60;;;6.25;;
76073;SDS011;64776;42.636;24.358;2023-04-01T15:04:28;13.73;;;5.78;;
76073;SDS011;64776;42.636;24.358;2023-04-01T15:14:50;125.45;;;46.55;;
76073;SDS011;64776;42.636;24.358;2023-04-01T15:18:17;132.82;;;50.17;;
76073;SDS011;64776;42.636;24.358;2023-04-01T15:21:25;198.40;;;117.18;;
76073;SDS011;64776;42.636;24.358;2023-04-01T15:25:00;29.13;;;17.20;;
76073;SDS011;64776;42.636;24.358;2023-04-01T15:28:20;53.97;;;21.95;;
76073;SDS011;64776;42.636;24.358;2023-04-01T15:31:29;46.15;;;19.65;;
76073;SDS011;64776;42.636;24.358;2023-04-01T15:34:40;34.83;;;18.48;;
76073;SDS011;64776;42.636;24.358;2023-04-01T15:37:50;30.75;;;15.73;;
76073;SDS011;64776;42.636;24.358;2023-04-01T15:40:57;26.73;;;13.05;;
76073;SDS011;64776;42.636;24.358;2023-04-01T15:44:04;175.55;;;99.30;;
76073;SDS011;64776;42.636;24.358;2023-04-01T15:47:36;109.75;;;55.95;;
76073;SDS011;64776;42.636;24.358;2023-04-01T15:50:45;90.97;;;41.47;;
76073;SDS011;64776;42.636;24.358;2023-04-01T15:53:56;85.57;;;43.90;;
76073;SDS011;64776;42.636;24.358;2023-04-01T15:57:15;19.83;;;10.05;;
76073;SDS011;64776;42.636;24.358;2023-04-01T16:00:27;10.35;;;5.13;;
76073;SDS011;64776;42.636;24.358;2023-04-01T16:03:33;14.13;;;4.55;;
76073;SDS011;64776;42.636;24.358;2023-04-01T16:06:47;24.58;;;9.65;;
76073;SDS011;64776;42.636;24.358;2023-04-01T16:10:05;17.50;;;7.03;;
76073;SDS011;64776;42.636;24.358;2023-04-01T16:13:22;23.83;;;11.20;;
76073;SDS011;64776;42.636;24.358;2023-04-01T16:16:34;13.90;;;3.20;;
76073;SDS011;64776;42.636;24.358;2023-04-01T16:19:51;7.80;;;1.48;;
76073;SDS011;64776;42.636;24.358;2023-04-01T16:22:56;18.17;;;6.03;;
76073;SDS011;64776;42.636;24.358;2023-04-01T16:26:03;9.15;;;2.67;;
76073;SDS011;64776;42.636;24.358;2023-04-01T16:29:10;12.80;;;4.80;;
76073;SDS011;64776;42.636;24.358;2023-04-01T16:35:43;93.28;;;35.38;;
76073;SDS011;64776;42.636;24.358;2023-04-01T16:38:48;49.13;;;23.77;;
76073;SDS011;64776;42.636;24.358;2023-04-01T16:41:57;24.70;;;9.82;;
76073;SDS011;64776;42.636;24.358;2023-04-01T16:45:17;30.90;;;13.10;;
76073;SDS011;64776;42.636;24.358;2023-04-01T16:48:27;12.90;;;5.72;;
76073;SDS011;64776;42.636;24.358;2023-04-01T16:51:36;18.63;;;5.88;;
76073;SDS011;64776;42.636;24.358;2023-04-01T16:54:47;25.75;;;9.48;;
76073;SDS011;64776;42.636;24.358;2023-04-01T16:57:56;18.50;;;5.90;;
76073;SDS011;64776;42.636;24.358;2023-04-01T17:00:58;32.80;;;14.38;;
76073;SDS011;64776;42.636;24.358;2023-04-01T17:04:04;18.65;;;7.75;;
76073;SDS011;64776;42.636;24.358;2023-04-01T17:07:14;20.10;;;9.63;;
76073;SDS011;64776;42.636;24.358;2023-04-01T17:10:42;37.88;;;20.50;;
76073;SDS011;64776;42.636;24.358;2023-04-01T17:13:52;32.28;;;17.85;;
76073;SDS011;64776;42.636;24.358;2023-04-01T17:17:10;82.47;;;33.78;;
76073;SDS011;64776;42.636;24.358;2023-04-01T17:20:31;10.70;;;2.38;;
76073;SDS011;64776;42.636;24.358;2023-04-01T17:23:42;6.85;;;2.22;;
76073;SDS011;64776;42.636;24.358;2023-04-01T17:26:50;62.33;;;29.20;;
76073;SDS011;64776;42.636;24.358;2023-04-01T17:30:13;34.20;;;19.15;;
76073;SDS011;64776;42.636;24.358;2023-04-01T17:33:27;19.33;;;8.20;;
76073;SDS011;64776;42.636;24.358;2023-04-01T17:36:44;28.02;;;13.98;;
76073;SDS011;64776;42.636;24.358;2023-04-01T17:39:58;17.73;;;6.20;;
76073;SDS011;64776;42.636;24.358;2023-04-01T17:43:12;21.77;;;13.52;;
76073;SDS011;64776;42.636;24.358;2023-04-01T17:46:26;21.17;;;8.85;;
76073;SDS011;64776;42.636;24.358;2023-04-01T17:49:35;24.88;;;11.05;;
76073;SDS011;64776;42.636;24.358;2023-04-01T17:52:43;32.88;;;13.02;;
76073;SDS011;64776;42.636;24.358;2023-04-01T17:59:06;13.23;;;5.47;;
76073;SDS011;64776;42.636;24.358;2023-04-01T18:02:17;7.47;;;3.38;;
76073;SDS011;64776;42.636;24.358;2023-04-01T18:05:27;6.55;;;2.47;;
76073;SDS011;64776;42.636;24.358;2023-04-01T18:08:39;6.05;;;2.15;;
76073;SDS011;64776;42.636;24.358;2023-04-01T18:11:58;2.88;;;1.30;;
76073;SDS011;64776;42.636;24.358;2023-04-01T18:15:15;4.35;;;1.23;;
76073;SDS011;64776;42.636;24.358;2023-04-01T18:18:36;3.50;;;1.10;;
76073;SDS011;64776;42.636;24.358;2023-04-01T18:21:47;7.10;;;1.88;;
76073;SDS011;64776;42.636;24.358;2023-04-01T18:24:54;6.25;;;2.20;;
76073;SDS011;64776;42.636;24.358;2023-04-01T18:28:11;4.65;;;1.42;;
76073;SDS011;64776;42.636;24.358;2023-04-01T18:31:20;5.47;;;1.92;;
76073;SDS011;64776;42.636;24.358;2023-04-01T18:34:29;4.18;;;1.73;;
76073;SDS011;64776;42.636;24.358;2023-04-01T18:37:44;2.97;;;1.13;;
76073;SDS011;64776;42.636;24.358;2023-04-01T18:40:51;5.25;;;2.40;;
76073;SDS011;64776;42.636;24.358;2023-04-01T18:44:01;3.90;;;1.48;;
76073;SDS011;64776;42.636;24.358;2023-04-01T18:47:15;6.85;;;2.00;;
76073;SDS011;64776;42.636;24.358;2023-04-01T18:50:26;7.18;;;3.10;;
76073;SDS011;64776;42.636;24.358;2023-04-01T18:53:35;5.10;;;1.85;;
76073;SDS011;64776;42.636;24.358;2023-04-01T18:56:42;5.30;;;1.70;;
76073;SDS011;64776;42.636;24.358;2023-04-01T18:59:45;4.18;;;1.67;;
76073;SDS011;64776;42.636;24.358;2023-04-01T19:02:55;7.90;;;2.40;;
76073;SDS011;64776;42.636;24.358;2023-04-01T19:06:06;4.60;;;1.63;;
76073;SDS011;64776;42.636;24.358;2023-04-01T19:09:26;5.53;;;2.05;;
76073;SDS011;64776;42.636;24.358;2023-04-01T19:12:33;4.30;;;1.60;;
76073;SDS011;64776;42.636;24.358;2023-04-01T19:15:41;4.78;;;1.67;;
76073;SDS011;64776;42.636;24.358;2023-04-01T19:18:57;6.20;;;2.33;;
76073;SDS011;64776;42.636;24.358;2023-04-01T19:22:12;4.80;;;1.33;;
76073;SDS011;64776;42.636;24.358;2023-04-01T19:25:23;2.88;;;1.17;;
76073;SDS011;64776;42.636;24.358;2023-04-01T19:28:38;2.67;;;1.23;;
76073;SDS011;64776;42.636;24.358;2023-04-01T19:31:49;4.68;;;1.33;;
76073;SDS011;64776;42.636;24.358;2023-04-01T19:34:59;7.38;;;2.15;;
76073;SDS011;64776;42.636;24.358;2023-04-01T19:38:12;6.32;;;2.05;;
76073;SDS011;64776;42.636;24.358;2023-04-01T19:41:24;2.55;;;0.73;;
76073;SDS011;64776;42.636;24.358;2023-04-01T19:44:34;3.42;;;1.42;;
76073;SDS011;64776;42.636;24.358;2023-04-01T19:47:49;3.72;;;1.20;;
76073;SDS011;64776;42.636;24.358;2023-04-01T19:51:03;3.08;;;1.48;;
76073;SDS011;64776;42.636;24.358;2023-04-01T19:54:12;2.92;;;1.02;;
76073;SDS011;64776;42.636;24.358;2023-04-01T19:57:23;3.45;;;1.35;;
76073;SDS011;64776;42.636;24.358;2023-04-01T20:00:34;3.80;;;1.42;;
76073;SDS011;64776;42.636;24.358;2023-04-01T20:03:39;2.67;;;0.95;;
76073;SDS011;64776;42.636;24.358;2023-04-01T20:06:46;3.40;;;1.08;;
76073;SDS011;64776;42.636;24.358;2023-04-01T20:09:56;4.10;;;1.70;;
76073;SDS011;64776;42.636;24.358;2023-04-01T20:13:05;8.93;;;4.18;;
76073;SDS011;64776;42.636;24.358;2023-04-01T20:16:14;90.43;;;31.02;;
76073;SDS011;64776;42.636;24.358;2023-04-01T20:19:20;47.03;;;21.60;;
76073;SDS011;64776;42.636;24.358;2023-04-01T20:22:31;13.48;;;6.50;;
76073;SDS011;64776;42.636;24.358;2023-04-01T20:25:49;4.10;;;1.58;;
76073;SDS011;64776;42.636;24.358;2023-04-01T20:29:12;3.92;;;1.98;;
76073;SDS011;64776;42.636;24.358;2023-04-01T20:36:00;13.38;;;4.47;;